Cenk Y — TCZV7 — position and weather

sailwx.info

Track history (hours):
 
Tides and Currents Weather Stations Pressure Air Temp Water Temp Dewpoint Dewpoint Depression Visibility Wind Speed Wind Dir Waves Ship Positions

Cenk Y

Last reported at 2017-Aug-19 19:14 UTC. Time now 2017-Aug-20 13:39 UTC.
Position N 43°18' E 031°27'.

Length 150 m; draft 4.7 m.

Type: Ship. MMSI: 271042575.

Date/timePositionNaut miles runAvg speedWind from/ knotsBaromVisibWave heightAir tempDewpointWater temp
2017-Aug-19 19:14N 43°18' E 031°27'412.4
2017-Aug-19 18:57N 43°21' E 031°26'612.3
2017-Aug-19 18:29N 43°27' E 031°25'612.4
2017-Aug-19 18:00N 43°32' E 031°24'612.3
2017-Aug-19 17:30N 43°39' E 031°22'612.3
2017-Aug-19 17:00N 43°45' E 031°21'612.4
2017-Aug-19 16:30N 43°51' E 031°19'612.6
2017-Aug-19 16:00N 43°57' E 031°19'612.7
2017-Aug-19 15:30N 44°03' E 031°18'5212.4
2017-Aug-19 11:21N 44°54' E 031°06'412.4
2017-Aug-19 11:00N 44°59' E 031°05'612.5
2017-Aug-19 10:30N 45°05' E 031°04'612.3
2017-Aug-19 10:00N 45°11' E 031°03'612.1
2017-Aug-19 09:30N 45°17' E 031°02'612.0
2017-Aug-19 09:00N 45°23' E 031°00'612.1
2017-Aug-19 08:30N 45°29' E 030°59'612.3
2017-Aug-19 08:00N 45°35' E 030°57'812.1
2017-Aug-19 07:22N 45°42' E 030°55'412.0
2017-Aug-19 07:00N 45°47' E 030°54'612.1
2017-Aug-19 06:30N 45°53' E 030°52'612.2
2017-Aug-19 06:00N 45°59' E 030°51'612.2
2017-Aug-19 05:30N 46°05' E 030°49'612.4
2017-Aug-19 05:00N 46°11' E 030°47'714.4
2017-Aug-19 04:30N 46°18' E 030°44'5 0.9
2017-Aug-18 23:08N 46°21' E 030°39'0 0.0
2017-Aug-18 22:48N 46°21' E 030°39'0 0.0
2017-Aug-18 22:28N 46°21' E 030°39'0 0.0
2017-Aug-18 13:01N 46°21' E 030°39'0 0.0
2017-Aug-18 12:53N 46°21' E 030°39'0 0.6
2017-Aug-18 12:31N 46°20' E 030°39'3 6.1
2017-Aug-18 12:01N 46°19' E 030°43'1 2.7
2017-Aug-18 11:31N 46°18' E 030°45'0 0.6
2017-Aug-18 11:00N 46°19' E 030°45'1 2.0
2017-Aug-18 10:30N 46°18' E 030°45'1 2.8
2017-Aug-18 10:00N 46°16' E 030°45'0 0.0
2017-Aug-18 09:30N 46°16' E 030°44'0 0.0
2017-Aug-18 09:00N 46°16' E 030°44'0 0.0
2017-Aug-18 08:27N 46°16' E 030°44'0 0.0
2017-Aug-18 08:00N 46°16' E 030°44'0 0.0
2017-Aug-18 07:31N 46°16' E 030°44'0 0.1
2017-Aug-18 07:01N 46°16' E 030°45'0 0.0
2017-Aug-18 06:30N 46°16' E 030°45'0 0.0
2017-Aug-18 05:50N 46°16' E 030°45'0 0.0
2017-Aug-18 05:28N 46°16' E 030°45'0 0.1
2017-Aug-18 05:00N 46°16' E 030°44'0 0.1
2017-Aug-18 04:31N 46°16' E 030°45'0 0.0
2017-Aug-18 03:56N 46°16' E 030°45'0 0.0
2017-Aug-18 03:29N 46°16' E 030°44'0 0.0
2017-Aug-18 02:59N 46°16' E 030°44'0 0.0
2017-Aug-18 02:30N 46°16' E 030°45'0 0.1
2017-Aug-18 02:00N 46°16' E 030°44'0 0.0
2017-Aug-18 01:29N 46°16' E 030°44'0 0.0
2017-Aug-18 00:58N 46°16' E 030°44'0 0.0
2017-Aug-18 00:29N 46°16' E 030°45'37 3.2
2017-Aug-17 13:00N 45°41' E 030°59'714.2
2017-Aug-17 12:30N 45°34' E 031°01'714.1
2017-Aug-17 12:00N 45°27' E 031°03'714.0
2017-Aug-17 11:30N 45°20' E 031°05'914.0
2017-Aug-17 10:51N 45°11' E 031°06'514.1
2017-Aug-17 10:30N 45°06' E 031°07'714.0
2017-Aug-17 10:00N 44°59' E 031°08'2214.1
2017-Aug-17 08:27N 44°37' E 031°09'614.3
2017-Aug-17 08:00N 44°31' E 031°10'714.2
2017-Aug-17 07:30N 44°24' E 031°11'714.2
2017-Aug-17 07:00N 44°17' E 031°12'714.3
2017-Aug-17 06:30N 44°10' E 031°13'714.3
2017-Aug-17 06:00N 44°03' E 031°14'  
2017-Aug-13 18:42N 46°20' E 030°39'1 0.0
2017-Aug-13 03:49N 46°21' E 030°39'0 0.0
2017-Aug-13 03:30N 46°21' E 030°39'0 0.0
2017-Aug-13 02:55N 46°21' E 030°39'0 0.0
2017-Aug-12 17:57N 46°20' E 030°39'4212.1
2017-Aug-12 14:30N 45°41' E 030°57'714.2
2017-Aug-12 14:00N 45°34' E 030°59'714.2
2017-Aug-12 13:30N 45°27' E 031°01'714.1
2017-Aug-12 13:00N 45°20' E 031°03'713.9
2017-Aug-12 12:30N 45°13' E 031°04'713.8
2017-Aug-12 12:00N 45°06' E 031°05'713.8
2017-Aug-12 11:30N 44°59' E 031°07'713.8
2017-Aug-12 11:00N 44°52' E 031°08'713.9
2017-Aug-12 10:31N 44°45' E 031°09'713.9
2017-Aug-12 10:00N 44°38' E 031°10'714.1
2017-Aug-12 09:30N 44°31' E 031°11'714.4
2017-Aug-12 09:00N 44°24' E 031°12'1814.5
2017-Aug-12 07:44N 44°06' E 031°15'6814.5
2017-Aug-12 03:01N 42°59' E 031°28'014.5
2017-Aug-12 03:00N 42°58' E 031°28'714.3
2017-Aug-12 02:30N 42°51' E 031°30'713.8
2017-Aug-12 02:00N 42°44' E 031°31'713.8
2017-Aug-12 01:29N 42°37' E 031°32'813.9
2017-Aug-12 00:54N 42°29' E 031°34'614.2
2017-Aug-12 00:30N 42°24' E 031°35'714.2
2017-Aug-12 00:00N 42°17' E 031°37'714.2
2017-Aug-11 23:30N 42°10' E 031°39'247 5.0
2017-Aug-09 22:29N 46°14' E 030°46'611.9
2017-Aug-09 22:00N 46°19' E 030°42'  
Track history (hours):
 
Tides and Currents Weather Stations Pressure Air Temp Water Temp Dewpoint Dewpoint Depression Visibility Wind Speed Wind Dir Waves Ship Positions

Cenk Y

Last reported at 2017-Aug-19 19:14 UTC. Time now 2017-Aug-20 13:39 UTC.
Position N 43°18' E 031°27'.

Length 150 m; draft 4.7 m.

Type: Ship. MMSI: 271042575.

Date/timePositionNaut miles runAvg speedWind from/ knotsBaromVisibWave heightAir tempDewpointWater temp
2017-Aug-19 19:14N 43°18' E 031°27'412.4
2017-Aug-19 18:57N 43°21' E 031°26'612.3
2017-Aug-19 18:29N 43°27' E 031°25'612.4
2017-Aug-19 18:00N 43°32' E 031°24'612.3
2017-Aug-19 17:30N 43°39' E 031°22'612.3
2017-Aug-19 17:00N 43°45' E 031°21'612.4
2017-Aug-19 16:30N 43°51' E 031°19'612.6
2017-Aug-19 16:00N 43°57' E 031°19'612.7
2017-Aug-19 15:30N 44°03' E 031°18'5212.4
2017-Aug-19 11:21N 44°54' E 031°06'412.4
2017-Aug-19 11:00N 44°59' E 031°05'612.5
2017-Aug-19 10:30N 45°05' E 031°04'612.3
2017-Aug-19 10:00N 45°11' E 031°03'612.1
2017-Aug-19 09:30N 45°17' E 031°02'612.0
2017-Aug-19 09:00N 45°23' E 031°00'612.1
2017-Aug-19 08:30N 45°29' E 030°59'612.3
2017-Aug-19 08:00N 45°35' E 030°57'812.1
2017-Aug-19 07:22N 45°42' E 030°55'412.0
2017-Aug-19 07:00N 45°47' E 030°54'612.1
2017-Aug-19 06:30N 45°53' E 030°52'612.2
2017-Aug-19 06:00N 45°59' E 030°51'612.2
2017-Aug-19 05:30N 46°05' E 030°49'612.4
2017-Aug-19 05:00N 46°11' E 030°47'714.4
2017-Aug-19 04:30N 46°18' E 030°44'5 0.9
2017-Aug-18 23:08N 46°21' E 030°39'0 0.0
2017-Aug-18 22:48N 46°21' E 030°39'0 0.0
2017-Aug-18 22:28N 46°21' E 030°39'0 0.0
2017-Aug-18 13:01N 46°21' E 030°39'0 0.0
2017-Aug-18 12:53N 46°21' E 030°39'0 0.6
2017-Aug-18 12:31N 46°20' E 030°39'3 6.1
2017-Aug-18 12:01N 46°19' E 030°43'1 2.7
2017-Aug-18 11:31N 46°18' E 030°45'0 0.6
2017-Aug-18 11:00N 46°19' E 030°45'1 2.0
2017-Aug-18 10:30N 46°18' E 030°45'1 2.8
2017-Aug-18 10:00N 46°16' E 030°45'0 0.0
2017-Aug-18 09:30N 46°16' E 030°44'0 0.0
2017-Aug-18 09:00N 46°16' E 030°44'0 0.0
2017-Aug-18 08:27N 46°16' E 030°44'0 0.0
2017-Aug-18 08:00N 46°16' E 030°44'0 0.0
2017-Aug-18 07:31N 46°16' E 030°44'0 0.1
2017-Aug-18 07:01N 46°16' E 030°45'0 0.0
2017-Aug-18 06:30N 46°16' E 030°45'0 0.0
2017-Aug-18 05:50N 46°16' E 030°45'0 0.0
2017-Aug-18 05:28N 46°16' E 030°45'0 0.1
2017-Aug-18 05:00N 46°16' E 030°44'0 0.1
2017-Aug-18 04:31N 46°16' E 030°45'0 0.0
2017-Aug-18 03:56N 46°16' E 030°45'0 0.0
2017-Aug-18 03:29N 46°16' E 030°44'0 0.0
2017-Aug-18 02:59N 46°16' E 030°44'0 0.0
2017-Aug-18 02:30N 46°16' E 030°45'0 0.1
2017-Aug-18 02:00N 46°16' E 030°44'0 0.0
2017-Aug-18 01:29N 46°16' E 030°44'0 0.0
2017-Aug-18 00:58N 46°16' E 030°44'0 0.0
2017-Aug-18 00:29N 46°16' E 030°45'37 3.2
2017-Aug-17 13:00N 45°41' E 030°59'714.2
2017-Aug-17 12:30N 45°34' E 031°01'714.1
2017-Aug-17 12:00N 45°27' E 031°03'714.0
2017-Aug-17 11:30N 45°20' E 031°05'914.0
2017-Aug-17 10:51N 45°11' E 031°06'514.1
2017-Aug-17 10:30N 45°06' E 031°07'714.0
2017-Aug-17 10:00N 44°59' E 031°08'2214.1
2017-Aug-17 08:27N 44°37' E 031°09'614.3
2017-Aug-17 08:00N 44°31' E 031°10'714.2
2017-Aug-17 07:30N 44°24' E 031°11'714.2
2017-Aug-17 07:00N 44°17' E 031°12'714.3
2017-Aug-17 06:30N 44°10' E 031°13'714.3
2017-Aug-17 06:00N 44°03' E 031°14'  
2017-Aug-13 18:42N 46°20' E 030°39'1 0.0
2017-Aug-13 03:49N 46°21' E 030°39'0 0.0
2017-Aug-13 03:30N 46°21' E 030°39'0 0.0
2017-Aug-13 02:55N 46°21' E 030°39'0 0.0
2017-Aug-12 17:57N 46°20' E 030°39'4212.1
2017-Aug-12 14:30N 45°41' E 030°57'714.2
2017-Aug-12 14:00N 45°34' E 030°59'714.2
2017-Aug-12 13:30N 45°27' E 031°01'714.1
2017-Aug-12 13:00N 45°20' E 031°03'713.9
2017-Aug-12 12:30N 45°13' E 031°04'713.8
2017-Aug-12 12:00N 45°06' E 031°05'713.8
2017-Aug-12 11:30N 44°59' E 031°07'713.8
2017-Aug-12 11:00N 44°52' E 031°08'713.9
2017-Aug-12 10:31N 44°45' E 031°09'713.9
2017-Aug-12 10:00N 44°38' E 031°10'714.1
2017-Aug-12 09:30N 44°31' E 031°11'714.4
2017-Aug-12 09:00N 44°24' E 031°12'1814.5
2017-Aug-12 07:44N 44°06' E 031°15'6814.5
2017-Aug-12 03:01N 42°59' E 031°28'014.5
2017-Aug-12 03:00N 42°58' E 031°28'714.3
2017-Aug-12 02:30N 42°51' E 031°30'713.8
2017-Aug-12 02:00N 42°44' E 031°31'713.8
2017-Aug-12 01:29N 42°37' E 031°32'813.9
2017-Aug-12 00:54N 42°29' E 031°34'614.2
2017-Aug-12 00:30N 42°24' E 031°35'714.2
2017-Aug-12 00:00N 42°17' E 031°37'714.2
2017-Aug-11 23:30N 42°10' E 031°39'247 5.0
2017-Aug-09 22:29N 46°14' E 030°46'611.9
2017-Aug-09 22:00N 46°19' E 030°42'  

Dump ship's entire track history